Sharps Corner, South Dakota
Current Conditions -  °F | °C
As of 1:52 AM on Wednesday 28 Jan 2015 (Local Time) from KIEN Reporting Station
Clear Clear  
Wind Chill: 40°   Ceiling: Unl
Heat Index: 45°   Visibility: 10mi
Dew Point: 27°   Wind: 10mph
Humidity: 49%   Direction: 240°WSW
Pressure: 29.85"   Gusts: NA
Location:  43.2863°N, 102.209°W
Report Text: KIEN 280852Z AUTO 24009KT 10SM CLR 07/M03 A2985 RMK AO2 SLP097 T00721028 56012
Loading
Personal Weather Stations






























Interactive Weather Map New forecast layout! Learn more

10-Day Weather Forecast

Advertisements
Track Severe Weather on mobile